createdAt,value
2016-11-18T05:52:50.019Z,35.72
2016-11-18T05:54:52.505Z,36.51
2016-11-18T05:56:52.467Z,36.85
2016-11-18T06:00:50.195Z,37.18
2016-11-18T06:02:50.225Z,37.28
2016-11-18T06:04:50.436Z,37.36
2016-11-18T06:06:50.343Z,37.38
2016-11-18T06:08:50.410Z,37.37
2016-11-18T06:12:16.981Z,36.86
2016-11-18T06:14:16.988Z,37.64
2016-11-18T06:16:16.994Z,37.84
2016-11-18T06:18:17.092Z,37.84
2016-11-18T06:20:45.867Z,37.36
2016-11-18T06:22:43.243Z,37.79
2016-11-18T06:24:43.333Z,37.84
2016-11-18T06:26:43.452Z,37.84
2016-11-18T06:28:46.112Z,37.78
2016-11-18T06:30:46.115Z,37.78
2016-11-18T06:32:44.343Z,37.69
2016-11-18T06:34:43.713Z,37.64
2016-11-18T06:36:43.598Z,37.8
2016-11-18T06:38:46.232Z,37.72
2016-11-18T06:40:46.323Z,37.69
2016-11-18T06:42:43.859Z,37.6
2016-11-18T06:44:44.764Z,37.54
2016-11-18T06:46:46.513Z,37.48
2016-11-18T06:48:43.916Z,37.41
2016-11-18T06:50:46.479Z,37.33
2016-11-18T06:52:48.008Z,37.3
2016-11-18T06:54:44.107Z,37.36
2016-11-18T06:56:44.164Z,37.35
2016-11-18T06:58:44.126Z,37.41
2016-11-18T07:00:44.336Z,37.44
2016-11-18T07:02:46.780Z,37.48
2016-11-18T07:04:44.368Z,37.53
2016-11-18T07:06:46.994Z,37.58
2016-11-18T07:08:46.965Z,37.61
2016-11-18T07:10:44.549Z,37.64
2016-11-18T07:12:44.676Z,37.71
2016-11-18T07:14:44.741Z,37.76
2016-11-18T07:16:47.736Z,37.75
2016-11-18T07:18:47.272Z,37.79
2016-11-18T07:20:47.403Z,37.82
2016-11-18T07:22:47.308Z,37.82
2016-11-18T07:24:47.346Z,37.82
2016-11-18T07:26:47.386Z,37.8
2016-11-18T07:28:45.478Z,37.8
2016-11-18T07:30:47.532Z,37.79
2016-11-18T07:32:47.475Z,37.78
2016-11-18T07:34:47.633Z,37.82
2016-11-18T07:36:45.062Z,37.85
2016-11-18T07:38:47.760Z,37.88
2016-11-18T07:40:45.729Z,37.9
2016-11-18T07:42:45.869Z,37.9
2016-11-18T07:44:48.374Z,37.86
2016-11-18T07:46:49.071Z,37.83
2016-11-18T07:48:47.923Z,37.84
2016-11-18T07:50:45.293Z,37.84
2016-11-18T07:52:46.070Z,37.84
2016-11-18T07:54:48.005Z,37.83
2016-11-18T07:56:48.101Z,37.8
2016-11-18T07:58:46.415Z,37.79
2016-11-18T08:00:45.628Z,37.77
2016-11-18T08:02:45.592Z,37.79
2016-11-18T08:04:47.560Z,37.83
2016-11-18T08:06:45.761Z,37.83
2016-11-18T08:08:48.344Z,37.83
2016-11-18T08:10:49.800Z,37.79
2016-11-18T08:12:45.904Z,37.78
2016-11-18T08:14:49.233Z,37.75
2016-11-18T08:16:46.123Z,37.71
2016-11-18T08:18:46.231Z,37.66
2016-11-18T08:20:48.665Z,37.67
2016-11-18T08:22:46.246Z,37.6
2016-11-18T08:24:46.432Z,37.55
2016-11-18T08:26:48.923Z,37.4
2016-11-18T08:28:48.883Z,36.76
2016-11-18T08:30:46.353Z,36.31
2016-11-18T08:32:49.089Z,36.07
2016-11-18T08:34:46.570Z,36.08
2016-11-18T08:36:49.117Z,36.14
2016-11-18T08:38:46.607Z,36.16
2016-11-18T08:40:49.322Z,36.08
2016-11-18T08:42:46.834Z,36.05
2016-11-18T08:44:49.358Z,36.03
2016-11-18T08:46:49.394Z,36.02
2016-11-18T08:48:49.881Z,36.1
2016-11-18T08:50:49.456Z,36.18
2016-11-18T08:52:46.910Z,36.34
2016-11-18T08:54:47.109Z,36.39
2016-11-18T08:56:48.386Z,36.47
2016-11-18T08:58:47.150Z,36.52
2016-11-18T09:00:49.713Z,36.65
2016-11-18T09:02:47.323Z,36.63
2016-11-18T09:04:47.209Z,36.66
2016-11-18T09:06:51.738Z,36.68
2016-11-18T09:08:50.538Z,36.68
2016-11-18T09:10:47.444Z,36.68
2016-11-18T09:12:47.581Z,36.7
2016-11-18T09:14:52.475Z,36.73
2016-11-18T09:16:51.600Z,36.73
2016-11-18T09:18:48.206Z,36.72
2016-11-18T09:20:47.702Z,36.73
2016-11-18T09:22:48.363Z,36.76
2016-11-18T09:24:47.815Z,36.74
2016-11-18T09:26:47.849Z,36.68
2016-11-18T09:28:48.769Z,36.52
2016-11-18T09:30:50.503Z,36.46
2016-11-18T09:32:53.049Z,36.49
2016-11-18T09:34:51.138Z,36.54
2016-11-18T09:36:52.016Z,36.6
2016-11-18T09:38:50.736Z,36.67
2016-11-18T09:40:48.132Z,36.71
2016-11-18T09:43:29.592Z,36.34
2016-11-18T09:45:28.217Z,37.08
2016-11-18T09:47:29.539Z,37.31
2016-11-18T09:49:30.949Z,37.44
2016-11-18T09:51:30.938Z,37.54
2016-11-18T09:53:29.059Z,37.59
2016-11-18T09:55:28.527Z,37.68
2016-11-18T09:57:31.824Z,37.75
2016-11-18T09:59:31.172Z,37.8
2016-11-18T10:01:28.619Z,37.85
2016-11-18T10:03:28.514Z,37.87
2016-11-18T10:05:31.276Z,37.87
2016-11-18T10:07:28.798Z,37.9
2016-11-18T10:09:28.862Z,37.91
2016-11-18T10:11:28.894Z,37.93
2016-11-18T10:13:31.530Z,37.95
2016-11-18T10:15:28.969Z,37.9
2016-11-18T10:17:31.637Z,37.84
2016-11-18T10:19:31.585Z,37.81
2016-11-18T10:21:29.019Z,37.65
2016-11-18T10:23:32.005Z,37.51
2016-11-18T10:25:29.279Z,37.4
2016-11-18T10:27:31.755Z,37.3
2016-11-18T10:29:31.929Z,37.15
2016-11-18T10:31:32.765Z,37.03
2016-11-18T10:33:30.059Z,36.89
2016-11-18T10:35:32.735Z,36.79
2016-11-18T10:37:32.120Z,36.68
2016-11-18T10:39:33.377Z,36.57
2016-11-18T10:41:30.353Z,36.58
2016-11-18T10:43:32.316Z,36.67
2016-11-18T10:45:29.834Z,36.74
2016-11-18T10:47:32.394Z,36.79
2016-11-18T10:49:32.490Z,36.82
2016-11-18T10:51:29.978Z,36.83
2016-11-18T10:53:32.604Z,36.83
2016-11-18T10:55:33.302Z,36.83
2016-11-18T10:57:30.196Z,36.83
2016-11-18T10:59:30.176Z,36.83
2016-11-18T11:01:30.375Z,36.8
2016-11-18T11:03:32.803Z,36.78
2016-11-18T11:05:32.839Z,34.71
2016-11-18T11:07:31.928Z,33.46
2016-11-18T11:09:35.421Z,32.58
2016-11-18T11:11:33.681Z,32.17
2016-11-18T11:13:34.134Z,31.83
2016-11-18T11:15:33.219Z,31.59
2016-11-18T11:17:33.306Z,31.36
2016-11-18T11:19:30.887Z,31.22
2016-11-18T11:21:33.936Z,31.02
2016-11-18T11:23:34.086Z,30.81
2016-11-18T11:25:33.557Z,30.64
2016-11-18T11:27:32.393Z,30.33
2016-11-18T11:29:31.606Z,29.95
2016-11-18T11:31:31.817Z,29.85
2016-11-18T11:33:31.145Z,29.59
2016-11-18T11:35:31.235Z,29.42
2016-11-18T11:37:33.846Z,29.4
2016-11-18T11:39:32.498Z,29.42
2016-11-18T11:41:33.906Z,29.43
2016-11-18T11:43:31.272Z,29.43
2016-11-18T11:45:31.495Z,29.69
2016-11-18T11:47:32.175Z,29.86
2016-11-18T11:49:34.044Z,29.89
2016-11-18T11:51:31.658Z,29.8
2016-11-18T11:53:31.695Z,29.66
2016-11-18T11:55:34.326Z,29.62
2016-11-18T11:57:31.793Z,29.59
2016-11-18T11:59:34.349Z,29.36
2016-11-18T12:01:31.814Z,29.31
2016-11-18T12:03:34.498Z,29.37
2016-11-18T12:05:34.503Z,29.46
2016-11-18T12:07:32.057Z,29.45
2016-11-18T12:09:32.066Z,29.43
2016-11-18T12:11:32.725Z,29.47
2016-11-18T12:13:34.791Z,29.57
2016-11-18T12:15:36.250Z,29.68
2016-11-18T12:17:32.293Z,29.68
2016-11-18T12:19:35.705Z,29.72
2016-11-18T12:21:34.904Z,29.35
2016-11-18T12:23:32.585Z,29.15
2016-11-18T12:25:32.710Z,29.16
2016-11-18T12:27:35.231Z,29.22
2016-11-18T12:29:35.180Z,29.28
2016-11-18T12:31:32.639Z,29.39
2016-11-18T12:33:32.845Z,29.5
2016-11-18T12:35:33.547Z,29.5
2016-11-18T12:37:33.341Z,29.57
2016-11-18T12:39:35.995Z,29.63
2016-11-18T12:41:36.155Z,29.72
2016-11-18T12:43:35.468Z,29.71
2016-11-18T12:45:35.577Z,29.75
2016-11-18T12:47:32.967Z,29.8
2016-11-18T12:49:33.018Z,29.93
2016-11-18T12:51:35.583Z,30.04
2016-11-18T12:53:35.667Z,30.11
2016-11-18T12:55:33.297Z,30.24
2016-11-18T12:57:36.928Z,30.36
2016-11-18T12:59:33.277Z,30.44
2016-11-18T13:01:35.872Z,30.44
2016-11-18T13:03:34.173Z,29.59
2016-11-18T13:05:36.010Z,28.67
2016-11-18T13:07:34.245Z,28.42
2016-11-18T13:09:36.750Z,28.78
2016-11-18T13:11:37.322Z,29.29
2016-11-18T13:13:37.820Z,29.68
2016-11-18T13:15:33.716Z,30.04
2016-11-18T13:17:36.388Z,30.14
2016-11-18T13:19:36.952Z,30.17
2016-11-18T13:21:34.788Z,30.09
2016-11-18T13:23:37.091Z,30.13
2016-11-18T13:25:35.492Z,30.34
2016-11-18T13:27:34.818Z,30.57
2016-11-18T13:29:38.110Z,30.81
2016-11-18T13:31:37.435Z,30.84
2016-11-18T13:33:37.572Z,30.79
2016-11-18T13:35:38.168Z,30.25
2016-11-18T13:37:34.414Z,30.02
2016-11-18T13:39:34.406Z,29.5
2016-11-18T13:41:35.064Z,29.4
2016-11-18T13:43:37.507Z,29.22
2016-11-18T13:45:36.422Z,29.34
2016-11-18T13:47:35.202Z,29.58
2016-11-18T13:49:34.686Z,29.8
2016-11-18T13:51:39.169Z,29.55
2016-11-18T13:53:38.084Z,29.61
2016-11-18T13:55:37.457Z,29.96
2016-11-18T13:57:34.909Z,30.3
2016-11-18T13:59:37.551Z,30.66
2016-11-18T14:01:38.122Z,30.97
2016-11-18T14:03:38.451Z,31.2
2016-11-18T14:05:37.670Z,31.36
2016-11-18T14:07:35.193Z,31.49
2016-11-18T14:09:35.242Z,31.62
2016-11-18T14:11:35.228Z,31.76
2016-11-18T14:13:37.930Z,31.93
2016-11-18T14:15:38.490Z,32.04
2016-11-18T14:17:36.113Z,32.17
2016-11-18T14:19:38.085Z,32.29
2016-11-18T14:21:38.085Z,32.46
2016-11-18T14:23:38.127Z,32.54
2016-11-18T14:25:36.172Z,32.64
2016-11-18T14:27:39.081Z,32.64
2016-11-18T14:29:38.667Z,32.68
2016-11-18T14:31:35.730Z,32.64
2016-11-18T14:33:35.691Z,32.6
2016-11-18T14:35:38.385Z,32.63
2016-11-18T14:37:35.900Z,32.64
2016-11-18T14:39:39.221Z,32.68
2016-11-18T14:41:38.427Z,32.7
2016-11-18T14:43:38.461Z,32.74
2016-11-18T14:45:39.225Z,32.79
2016-11-18T14:47:39.831Z,32.81
2016-11-18T14:49:38.618Z,32.91
2016-11-18T14:51:38.690Z,33.02
2016-11-18T14:53:36.190Z,33.14
2016-11-18T14:55:36.285Z,33.2
2016-11-18T14:57:36.416Z,33.2
2016-11-18T14:59:36.460Z,33.15
2016-11-18T15:01:40.106Z,33.17
2016-11-18T15:03:37.263Z,33.2
2016-11-18T15:05:39.052Z,33.22
2016-11-18T15:07:37.271Z,33.3
2016-11-18T15:09:36.604Z,33.31
2016-11-18T15:11:36.682Z,33.35
2016-11-18T15:13:38.029Z,33.44
2016-11-18T15:15:36.872Z,33.53
2016-11-18T15:17:37.475Z,33.65
2016-11-18T15:19:39.485Z,33.83
2016-11-18T15:21:39.413Z,33.95
2016-11-18T15:23:39.484Z,34.04
2016-11-18T15:25:36.959Z,34.07
2016-11-18T15:27:40.600Z,34.09
2016-11-18T15:29:37.020Z,34.12
2016-11-18T15:31:39.720Z,34.12
2016-11-18T15:33:37.771Z,34.17
2016-11-18T15:35:40.527Z,34.28
2016-11-18T15:37:39.939Z,34.33
2016-11-18T15:39:40.551Z,34.37
2016-11-18T15:41:37.317Z,34.42
2016-11-18T15:43:39.975Z,34.44
2016-11-18T15:45:40.040Z,34.43
2016-11-18T15:47:38.812Z,34.38
2016-11-18T15:49:37.686Z,34.36
2016-11-18T15:51:40.950Z,34.34
2016-11-18T15:53:40.336Z,34.35
2016-11-18T15:55:40.409Z,34.39
2016-11-18T15:57:40.415Z,34.36
2016-11-18T15:59:37.999Z,34.42
2016-11-18T16:01:40.587Z,34.4
2016-11-18T16:03:38.121Z,34.48
2016-11-18T16:05:40.694Z,34.51
2016-11-18T16:07:40.714Z,34.47
2016-11-18T16:09:40.708Z,34.47
2016-11-18T16:11:38.242Z,34.45
2016-11-18T16:13:41.665Z,34.42
2016-11-18T16:15:41.636Z,34.41
2016-11-18T16:17:39.546Z,34.4
2016-11-18T16:19:38.556Z,34.39
2016-11-18T16:21:41.606Z,34.39
2016-11-18T16:23:38.490Z,34.39
2016-11-18T16:25:38.764Z,34.39
2016-11-18T16:27:38.773Z,34.37
2016-11-18T16:29:38.706Z,34.34
2016-11-18T16:31:41.403Z,34.34
2016-11-18T16:33:39.415Z,34.33
2016-11-18T16:35:39.390Z,34.37
2016-11-18T16:37:41.391Z,34.37
2016-11-18T16:39:38.824Z,34.36
2016-11-18T16:41:41.401Z,34.32
2016-11-18T16:43:39.060Z,34.28
2016-11-18T16:45:41.550Z,34.27
2016-11-18T16:47:41.530Z,34.27
2016-11-18T16:49:41.712Z,34.25
2016-11-18T16:51:39.149Z,34.24
2016-11-18T16:53:39.198Z,34.23
2016-11-18T16:55:41.876Z,34.2
2016-11-18T16:57:41.884Z,34.18
2016-11-18T16:59:41.876Z,34.17
2016-11-18T17:01:39.406Z,34.17
2016-11-18T17:03:42.005Z,34.15
2016-11-18T17:05:41.990Z,34.13
2016-11-18T17:07:42.093Z,34.1
2016-11-18T17:09:42.085Z,34.07
2016-11-18T17:11:42.746Z,34.06
2016-11-18T17:13:42.337Z,34.07
2016-11-18T17:15:42.337Z,34.05
2016-11-18T17:17:42.441Z,34.02
2016-11-18T17:19:40.395Z,34.01
2016-11-18T17:21:42.476Z,34.01
2016-11-18T17:23:42.533Z,34
2016-11-18T17:25:42.623Z,33.96
2016-11-18T17:27:43.231Z,33.93
2016-11-18T17:29:42.683Z,33.95
2016-11-18T17:31:40.147Z,33.94
2016-11-18T17:33:42.784Z,33.95
2016-11-18T17:35:42.845Z,33.91
2016-11-18T17:37:40.404Z,33.84
2016-11-18T17:39:40.322Z,33.78
2016-11-18T17:41:43.004Z,33.74
2016-11-18T17:43:40.445Z,33.75
2016-11-18T17:45:40.644Z,33.73
2016-11-18T17:47:40.551Z,33.74
2016-11-18T17:49:43.197Z,33.71
2016-11-18T17:51:43.190Z,33.72
2016-11-18T17:53:41.365Z,33.73
2016-11-18T17:55:40.963Z,33.72
2016-11-18T17:57:40.892Z,33.72
2016-11-18T17:59:43.473Z,33.73
2016-11-18T18:01:41.019Z,33.74
2016-11-18T18:03:43.672Z,33.74
2016-11-18T18:05:43.651Z,33.72
2016-11-18T18:07:43.885Z,33.7
2016-11-18T18:09:41.165Z,33.71
2016-11-18T18:11:41.277Z,33.7
2016-11-18T18:13:45.164Z,33.7
2016-11-18T18:15:43.984Z,33.67
2016-11-18T18:17:43.964Z,33.65
2016-11-18T18:19:41.519Z,33.66
2016-11-18T18:21:44.103Z,33.67
2016-11-18T18:23:44.250Z,33.67
2016-11-18T18:25:41.803Z,33.68
2016-11-18T18:27:44.376Z,33.69
2016-11-18T18:29:44.450Z,33.7
2016-11-18T18:31:44.594Z,33.71
2016-11-18T18:33:44.570Z,33.71
2016-11-18T18:35:42.127Z,33.7
2016-11-18T18:37:42.195Z,33.69
2016-11-18T18:39:42.249Z,33.67
2016-11-18T18:41:42.324Z,33.66
2016-11-18T18:43:42.382Z,33.65
2016-11-18T18:45:42.319Z,33.67
2016-11-18T18:47:44.918Z,33.69
2016-11-18T18:49:44.940Z,33.65
2016-11-18T18:51:42.493Z,33.64
2016-11-18T18:53:45.065Z,33.6
2016-11-18T18:55:42.540Z,33.58
2016-11-18T18:57:42.574Z,33.57
2016-11-18T18:59:45.154Z,33.51
2016-11-18T19:01:42.829Z,33.48
2016-11-18T19:03:42.883Z,33.47
2016-11-18T19:05:42.840Z,33.48
2016-11-18T19:07:45.526Z,33.49
2016-11-18T19:09:45.512Z,33.46
2016-11-18T19:11:45.611Z,33.43
2016-11-18T19:13:43.147Z,33.43
2016-11-18T19:15:43.317Z,33.39
2016-11-18T19:17:45.907Z,33.4
2016-11-18T19:19:43.473Z,33.37
2016-11-18T19:21:43.530Z,33.36
2016-11-18T19:23:43.597Z,33.34
2016-11-18T19:25:43.549Z,33.31
2016-11-18T19:27:43.595Z,33.3
2016-11-18T19:29:43.615Z,33.28
2016-11-18T19:31:46.230Z,33.3
2016-11-18T19:33:43.794Z,33.29
2016-11-18T19:35:43.738Z,33.29
2016-11-18T19:37:46.422Z,33.27
2016-11-18T19:39:43.999Z,33.25
2016-11-18T19:41:43.907Z,33.25
2016-11-18T19:43:44.039Z,33.24
2016-11-18T19:45:46.737Z,33.25
2016-11-18T19:47:44.185Z,33.25
2016-11-18T19:49:44.136Z,33.24
2016-11-18T19:51:46.718Z,33.24
2016-11-18T19:53:44.246Z,33.25
2016-11-18T19:55:46.926Z,33.21
2016-11-18T19:57:44.450Z,33.25
2016-11-18T19:59:46.962Z,33.22
2016-11-18T20:01:47.062Z,33.22
2016-11-18T20:03:47.056Z,33.22
2016-11-18T20:05:45.182Z,33.21
2016-11-18T20:07:47.267Z,33.2
2016-11-18T20:09:44.674Z,33.18
2016-11-18T20:11:44.789Z,33.16
2016-11-18T20:13:44.829Z,33.14
2016-11-18T20:15:44.723Z,33.09
2016-11-18T20:17:47.481Z,33.08
2016-11-18T20:19:47.557Z,33.1
2016-11-18T20:21:45.087Z,33.09
2016-11-18T20:23:47.567Z,33.09
2016-11-18T20:25:47.731Z,33.09
2016-11-18T20:27:47.799Z,33.09
2016-11-18T20:29:45.220Z,33.1
2016-11-18T20:31:47.869Z,33.1
2016-11-18T20:33:47.847Z,33.1
2016-11-18T20:35:48.009Z,33.1
2016-11-18T20:37:45.577Z,33.1
2016-11-18T20:39:48.136Z,33.08
2016-11-18T20:41:45.564Z,33.09
2016-11-18T20:43:48.300Z,33.08
2016-11-18T20:45:48.295Z,33.07
2016-11-18T20:47:48.477Z,33.1
2016-11-18T20:49:45.954Z,33.08
2016-11-18T20:51:45.970Z,33.08
2016-11-18T20:53:48.643Z,33.08
2016-11-18T20:55:48.734Z,33.09
2016-11-18T20:57:48.847Z,33.08
2016-11-18T20:59:48.786Z,33.07
2016-11-18T21:01:46.375Z,33.08
2016-11-18T21:03:46.438Z,33.08
2016-11-18T21:05:46.414Z,33.08
2016-11-18T21:07:49.044Z,33.07
2016-11-18T21:09:49.140Z,33.07
2016-11-18T21:11:46.686Z,33.07
2016-11-18T21:13:49.192Z,33.06
2016-11-18T21:15:47.380Z,33.07
2016-11-18T21:17:46.831Z,33.08
2016-11-18T21:19:46.896Z,33.06
2016-11-18T21:21:46.961Z,33.06
2016-11-18T21:23:49.465Z,33.05
2016-11-18T21:25:47.058Z,33.04
2016-11-18T21:27:49.653Z,33.05
2016-11-18T21:29:49.641Z,33.04
2016-11-18T21:31:47.263Z,33.05
2016-11-18T21:33:49.795Z,33.05
2016-11-18T21:35:47.236Z,33.04
2016-11-18T21:37:47.336Z,33.04
2016-11-18T21:39:49.827Z,33.04
2016-11-18T21:41:50.824Z,33.01
2016-11-18T21:43:50.040Z,33.02
2016-11-18T21:45:49.944Z,33.01
2016-11-18T21:47:50.034Z,33
2016-11-18T21:49:47.511Z,32.98
2016-11-18T21:51:50.104Z,32.98
2016-11-18T21:53:47.818Z,32.98
2016-11-18T21:55:47.781Z,32.98
2016-11-18T21:57:47.834Z,32.99
2016-11-18T21:59:50.365Z,32.98
2016-11-18T22:01:50.475Z,32.99
2016-11-18T22:03:47.825Z,32.97
2016-11-18T22:05:50.517Z,32.95
2016-11-18T22:07:50.639Z,32.96
2016-11-18T22:09:50.639Z,32.95
2016-11-18T22:11:47.996Z,32.94
2016-11-18T22:13:50.609Z,32.94
2016-11-18T22:15:50.709Z,32.94
2016-11-18T22:17:48.047Z,32.95
2016-11-18T22:19:50.652Z,32.95
2016-11-18T22:21:48.089Z,32.94
2016-11-18T22:23:50.764Z,32.96
2016-11-18T22:25:50.877Z,32.92
2016-11-18T22:27:48.311Z,32.94
2016-11-18T22:29:48.329Z,32.92
2016-11-18T22:31:48.388Z,32.92
2016-11-18T22:33:48.349Z,32.92
2016-11-18T22:35:50.955Z,32.92
2016-11-18T22:37:51.073Z,32.92
2016-11-18T22:39:51.062Z,32.93
2016-11-18T22:41:51.160Z,32.91
2016-11-18T22:43:51.217Z,32.91
2016-11-18T22:45:48.639Z,32.91
2016-11-18T22:47:51.235Z,32.9
2016-11-18T22:49:51.263Z,32.9
2016-11-18T22:51:51.269Z,32.91
2016-11-18T22:53:48.721Z,32.89
2016-11-18T22:55:48.898Z,32.88
2016-11-18T22:57:48.972Z,32.87
2016-11-18T22:59:51.554Z,32.86
2016-11-18T23:01:49.035Z,32.85
2016-11-18T23:03:51.724Z,32.84
2016-11-18T23:05:49.276Z,32.85
2016-11-18T23:07:49.344Z,32.85
2016-11-18T23:09:49.290Z,32.84
2016-11-18T23:11:49.332Z,32.84
2016-11-18T23:13:52.064Z,32.83
2016-11-18T23:15:52.055Z,32.81
2016-11-18T23:17:49.631Z,32.81
2016-11-18T23:19:49.705Z,32.81
2016-11-18T23:21:49.739Z,32.81
2016-11-18T23:23:52.325Z,32.8
2016-11-18T23:25:49.793Z,32.8
2016-11-18T23:27:52.393Z,32.79
2016-11-18T23:29:52.488Z,32.78
2016-11-18T23:31:50.087Z,32.78
2016-11-18T23:33:52.707Z,32.76
2016-11-18T23:35:52.684Z,32.76
2016-11-18T23:37:50.163Z,32.75
2016-11-18T23:39:52.735Z,32.74
2016-11-18T23:41:50.191Z,32.74
2016-11-18T23:43:52.802Z,32.73
2016-11-18T23:45:50.279Z,32.72
2016-11-18T23:47:52.900Z,32.72
2016-11-18T23:49:50.370Z,32.74
2016-11-18T23:51:52.979Z,32.72
2016-11-18T23:53:50.440Z,32.71
2016-11-18T23:55:53.162Z,32.7
2016-11-18T23:57:53.079Z,32.69
2016-11-18T23:59:53.177Z,32.69
